createdAt,value
2023-02-05T00:00:43.092Z,67.42676
2023-02-05T00:03:51.904Z,67.41992
2023-02-05T00:05:51.729Z,67.84277
2023-02-05T00:07:51.757Z,67.79199
2023-02-05T00:09:51.623Z,67.8877
2023-02-05T00:11:51.646Z,68.78906
2023-02-05T00:13:51.600Z,69.96582
2023-02-05T00:15:51.486Z,71.24707
2023-02-05T00:19:42.213Z,72.21484
2023-02-05T00:21:42.190Z,71.51953
2023-02-05T00:23:42.340Z,71.67871
2023-02-05T00:25:42.164Z,71.93555
2023-02-05T00:27:42.252Z,71.38086
2023-02-05T00:29:42.398Z,71.57031
2023-02-05T00:31:42.434Z,71.35156
2023-02-05T00:34:02.593Z,71.96484
2023-02-05T00:36:02.543Z,72.9668
2023-02-05T00:38:02.592Z,72.57324
2023-02-05T00:40:02.547Z,73.12695
2023-02-05T00:42:02.529Z,73.69141
2023-02-05T00:44:02.514Z,74
2023-02-05T00:46:02.644Z,73.1748
2023-02-05T00:48:02.572Z,72.74609
2023-02-05T00:49:19.652Z,72.41602
2023-02-05T00:51:19.751Z,71.93945
2023-02-05T00:53:19.627Z,72.07227
2023-02-05T00:55:19.684Z,71.63281
2023-02-05T00:57:19.668Z,71.58984
2023-02-05T00:59:19.476Z,71.47852
2023-02-05T01:01:19.534Z,71.36133
2023-02-05T01:04:17.002Z,71.06055
2023-02-05T01:06:17.001Z,70.69336
2023-02-05T01:08:16.998Z,70.50098
2023-02-05T01:10:17.076Z,70.75195
2023-02-05T01:12:17.017Z,71.02148
2023-02-05T01:14:16.978Z,71.08594
2023-02-05T01:16:17.266Z,71.02637
2023-02-05T01:18:16.965Z,71.40234
2023-02-05T01:20:13.502Z,71.12793
2023-02-05T01:22:13.556Z,70.93652
2023-02-05T01:24:13.514Z,70.56641
2023-02-05T01:26:13.496Z,70.28613
2023-02-05T01:28:13.771Z,70.25879
2023-02-05T01:30:13.473Z,70.3457
2023-02-05T01:32:13.476Z,69.7168
2023-02-05T01:35:10.293Z,69.69727
2023-02-05T01:37:10.288Z,70.36426
2023-02-05T01:39:10.353Z,70.14844
2023-02-05T01:41:10.276Z,69.45215
2023-02-05T01:43:10.339Z,69.43164
2023-02-05T01:45:10.311Z,69.80371
2023-02-05T01:47:10.284Z,69.77246
2023-02-05T01:50:06.531Z,68.77441
2023-02-05T01:52:06.522Z,69.22656
2023-02-05T01:54:06.505Z,69.11914
2023-02-05T01:56:06.506Z,68.40527
2023-02-05T01:58:06.552Z,68.78223
2023-02-05T02:00:06.535Z,68.94531
2023-02-05T02:02:06.800Z,68.09473
2023-02-05T02:05:08.908Z,68.88086
2023-02-05T02:07:10.040Z,69.75098
2023-02-05T02:09:08.714Z,69.35059
2023-02-05T02:11:08.854Z,68.80859
2023-02-05T02:13:08.669Z,69.11523
2023-02-05T02:15:08.680Z,69.54688
2023-02-05T02:17:08.736Z,69.21094
2023-02-05T02:19:08.751Z,69.71777
2023-02-05T02:20:59.557Z,68.66992
2023-02-05T02:22:59.632Z,68.52832
2023-02-05T02:24:59.604Z,68.44336
2023-02-05T02:26:59.562Z,68.28223
2023-02-05T02:28:59.629Z,68.26563
2023-02-05T02:30:59.923Z,67.71875
2023-02-05T02:32:59.602Z,67.51074
2023-02-05T02:35:41.819Z,67.74414
2023-02-05T02:37:41.866Z,68.15723
2023-02-05T02:39:41.806Z,68.04395
2023-02-05T02:41:41.936Z,67.49316
2023-02-05T02:43:41.817Z,67.62793
2023-02-05T02:45:41.888Z,67.54883
2023-02-05T02:47:41.802Z,67.46094
2023-02-05T02:50:37.565Z,68.08398
2023-02-05T02:52:37.690Z,67.63477
2023-02-05T02:54:37.578Z,68.26855
2023-02-05T02:56:37.706Z,68.25293
2023-02-05T02:58:37.581Z,67.81348
2023-02-05T03:00:37.676Z,68.0459
2023-02-05T03:02:37.684Z,68.58594
2023-02-05T03:04:37.628Z,68.51172
2023-02-05T03:06:14.864Z,69.30469
2023-02-05T03:08:14.931Z,69.52441
2023-02-05T03:10:14.825Z,70.22266
2023-02-05T03:12:14.837Z,69.04492
2023-02-05T03:14:14.785Z,68.5332
2023-02-05T03:16:15.019Z,68.04102
2023-02-05T03:18:14.793Z,69.08691
2023-02-05T03:21:23.355Z,67.62891
2023-02-05T03:23:23.424Z,67.46484
2023-02-05T03:25:23.725Z,66.95117
2023-02-05T03:27:23.332Z,67.64941
2023-02-05T03:29:23.335Z,67.71777
2023-02-05T03:31:23.400Z,67.58301
2023-02-05T03:33:23.278Z,67.73828
2023-02-05T03:36:40.495Z,67.67676
2023-02-05T03:38:40.482Z,68.39941
2023-02-05T03:40:40.405Z,69.53809
2023-02-05T03:42:40.452Z,69.21484
2023-02-05T03:44:40.469Z,69.06055
2023-02-05T03:46:40.460Z,68.59375
2023-02-05T03:48:40.381Z,68.84375
2023-02-05T03:51:17.674Z,68.6377
2023-02-05T03:53:17.641Z,68.77344
2023-02-05T03:55:17.565Z,68.76953
2023-02-05T03:57:17.809Z,68.68945
2023-02-05T03:59:17.477Z,69.19824
2023-02-05T04:01:17.592Z,68.40234
2023-02-05T04:03:17.514Z,68.57227
2023-02-05T04:05:17.489Z,68.24121
2023-02-05T04:06:49.978Z,68.32617
2023-02-05T04:08:49.989Z,68.01465
2023-02-05T04:10:50.001Z,68.16406
2023-02-05T04:12:49.975Z,68.2832
2023-02-05T04:14:49.929Z,67.90625
2023-02-05T04:16:49.984Z,67.9873
2023-02-05T04:18:49.932Z,68.33008
2023-02-05T04:22:20.752Z,67.91113
2023-02-05T04:24:20.747Z,67.41309
2023-02-05T04:26:20.722Z,67.22559
2023-02-05T04:28:20.742Z,67.65625
2023-02-05T04:30:20.711Z,68.02148
2023-02-05T04:32:20.677Z,67.53906
2023-02-05T04:34:20.722Z,68.12695
2023-02-05T04:37:12.401Z,67.95117
2023-02-05T04:39:12.326Z,68.19141
2023-02-05T04:41:12.356Z,68.0127
2023-02-05T04:43:12.479Z,68.31836
2023-02-05T04:45:12.321Z,68.04297
2023-02-05T04:47:12.334Z,68.84277
2023-02-05T04:49:12.344Z,68.20215
2023-02-05T04:52:23.591Z,68.02246
2023-02-05T04:54:23.603Z,67.8291
2023-02-05T04:56:23.655Z,68.40332
2023-02-05T04:58:23.635Z,68.56641
2023-02-05T05:00:23.565Z,68.22168
2023-02-05T05:02:23.633Z,68.45313
2023-02-05T05:04:23.596Z,68.13672
2023-02-05T05:07:06.595Z,68.66895
2023-02-05T05:09:06.628Z,69.37793
2023-02-05T05:11:06.610Z,68.59375
2023-02-05T05:13:06.593Z,68.56738
2023-02-05T05:15:06.717Z,67.97559
2023-02-05T05:17:06.782Z,67.69727
2023-02-05T05:19:06.648Z,68.05762
2023-02-05T05:21:06.595Z,67.9209
2023-02-05T05:22:37.109Z,68.63184
2023-02-05T05:24:37.152Z,69.13867
2023-02-05T05:26:37.131Z,68.52246
2023-02-05T05:28:37.158Z,68.37598
2023-02-05T05:30:37.370Z,68.81152
2023-02-05T05:32:37.279Z,68.70215
2023-02-05T05:34:37.587Z,68.9209
2023-02-05T05:38:17.112Z,68.1123
2023-02-05T05:40:17.085Z,68.38867
2023-02-05T05:42:17.099Z,68.26855
2023-02-05T05:44:17.087Z,68.52246
2023-02-05T05:46:17.212Z,68.53125
2023-02-05T05:48:17.051Z,68.56543
2023-02-05T05:50:17.202Z,68.60645
2023-02-05T05:53:26.380Z,69.29102
2023-02-05T05:55:26.346Z,68.83398
2023-02-05T05:57:26.413Z,68.93555
2023-02-05T05:59:26.481Z,68.80957
2023-02-05T06:01:26.331Z,69.05469
2023-02-05T06:03:26.344Z,68.72266
2023-02-05T06:05:26.509Z,68.76074
2023-02-05T06:07:56.791Z,68.91406
2023-02-05T06:09:56.843Z,68.46582
2023-02-05T06:11:57.028Z,68.17188
2023-02-05T06:13:56.740Z,68.31543
2023-02-05T06:15:56.908Z,68.52832
2023-02-05T06:17:56.751Z,68.58594
2023-02-05T06:19:56.695Z,68.85645
2023-02-05T06:23:07.989Z,68.81152
2023-02-05T06:25:08.182Z,68.66309
2023-02-05T06:27:07.973Z,68.45605
2023-02-05T06:29:07.987Z,69.0957
2023-02-05T06:31:08.398Z,69.40234
2023-02-05T06:33:07.895Z,69.09863
2023-02-05T06:35:07.850Z,68.58594
2023-02-05T06:38:32.585Z,68.3877
2023-02-05T06:40:32.555Z,68.51172
2023-02-05T06:42:32.564Z,68.99316
2023-02-05T06:44:32.597Z,70.11035
2023-02-05T06:46:32.657Z,70.60059
2023-02-05T06:48:32.547Z,69.7998
2023-02-05T06:50:32.602Z,70.3291
2023-02-05T06:53:17.396Z,70.07031
2023-02-05T06:55:17.422Z,70.81348
2023-02-05T06:57:17.413Z,70.93359
2023-02-05T06:59:17.431Z,71.38477
2023-02-05T07:01:17.520Z,70.80762
2023-02-05T07:03:17.425Z,71.35059
2023-02-05T07:05:17.729Z,70.5459
2023-02-05T07:07:17.427Z,71.41406
2023-02-05T07:09:05.401Z,71.45117
2023-02-05T07:11:05.616Z,70.77051
2023-02-05T07:13:06.255Z,70.11816
2023-02-05T07:15:05.479Z,69.42285
2023-02-05T07:17:05.381Z,69.24121
2023-02-05T07:19:05.476Z,69.45996
2023-02-05T07:21:05.526Z,69.21973
2023-02-05T07:24:19.332Z,69.15039
2023-02-05T07:26:19.268Z,68.67285
2023-02-05T07:28:19.342Z,68.93457
2023-02-05T07:30:19.291Z,69.55957
2023-02-05T07:32:19.277Z,69.375
2023-02-05T07:34:19.301Z,70.31348
2023-02-05T07:36:19.253Z,70.77051
2023-02-05T07:39:05.451Z,70.81055
2023-02-05T07:41:05.418Z,70.05273
2023-02-05T07:43:05.510Z,69.52637
2023-02-05T07:45:05.528Z,69.28027
2023-02-05T07:47:05.533Z,68.74023
2023-02-05T07:49:05.392Z,69.34473
2023-02-05T07:51:05.503Z,67.96387
2023-02-05T07:53:54.550Z,67.43457
2023-02-05T07:55:54.324Z,67.1377
2023-02-05T07:57:54.368Z,66.96582
2023-02-05T07:59:54.396Z,67.19434
2023-02-05T08:01:54.385Z,67.23828
2023-02-05T08:03:54.562Z,66.95117
2023-02-05T08:05:54.766Z,67.39453
2023-02-05T08:07:54.553Z,66.74316
2023-02-05T08:09:45.182Z,67.20898
2023-02-05T08:11:44.954Z,66.64551
2023-02-05T08:13:44.912Z,66.29199
2023-02-05T08:15:44.917Z,64.59277
2023-02-05T08:17:44.946Z,64.14258
2023-02-05T08:19:44.871Z,63.84766
2023-02-05T08:21:44.920Z,64.59473
2023-02-05T08:25:08.699Z,64.00391
2023-02-05T08:27:08.466Z,64.2334
2023-02-05T08:29:08.469Z,64.30273
2023-02-05T08:31:08.466Z,64.53418
2023-02-05T08:33:08.446Z,68.19043
2023-02-05T08:35:08.428Z,66.62598
2023-02-05T08:37:08.481Z,65.94727
2023-02-05T08:39:35.706Z,65.41797
2023-02-05T08:41:35.725Z,65.03906
2023-02-05T08:43:35.836Z,65.55566
2023-02-05T08:45:36.642Z,66.94824
2023-02-05T08:47:35.873Z,65.81152
2023-02-05T08:49:38.347Z,65.63184
2023-02-05T08:51:35.665Z,63.83203
2023-02-05T08:54:51.033Z,64.71875
2023-02-05T08:56:51.033Z,63.13281
2023-02-05T08:58:51.037Z,63.2373
2023-02-05T09:00:51.109Z,64.01172
2023-02-05T09:02:51.054Z,63.93945
2023-02-05T09:05:07.892Z,63.09277
2023-02-05T09:06:51.340Z,62.10156
2023-02-05T09:09:45.711Z,61.58203
2023-02-05T09:11:45.632Z,61.30566
2023-02-05T09:13:45.770Z,59.84668
2023-02-05T09:15:48.721Z,59.66504
2023-02-05T09:17:45.646Z,60.2041
2023-02-05T09:19:45.657Z,60.52832
2023-02-05T09:21:45.642Z,60.57031
2023-02-05T09:23:45.611Z,60.35449
2023-02-05T09:25:37.959Z,60.54492
2023-02-05T09:27:37.989Z,61.14844
2023-02-05T09:29:38.074Z,58.67578
2023-02-05T09:31:38.403Z,58.37207
2023-02-05T09:33:37.992Z,59.6084
2023-02-05T09:35:37.999Z,59.19727
2023-02-05T09:37:38.002Z,58.45117
2023-02-05T09:40:20.760Z,56.56445
2023-02-05T09:42:05.690Z,57.92578
2023-02-05T09:44:05.678Z,56.61914
2023-02-05T09:46:05.859Z,56.05371
2023-02-05T09:48:05.894Z,54.94434
2023-02-05T09:50:05.868Z,55.8457
2023-02-05T09:52:05.713Z,56.9541
2023-02-05T09:54:05.816Z,57.07715
2023-02-05T09:55:12.761Z,56.99707
2023-02-05T09:57:12.712Z,55.84473
2023-02-05T09:59:12.655Z,56.42969
2023-02-05T10:01:12.898Z,56.54199
2023-02-05T10:03:12.716Z,56.87207
2023-02-05T10:05:12.630Z,55.38672
2023-02-05T10:07:12.659Z,55.51172
2023-02-05T10:09:12.645Z,56.54102
2023-02-05T10:11:11.567Z,57.11523
2023-02-05T10:13:11.606Z,59.36035
2023-02-05T10:15:11.618Z,56.87305
2023-02-05T10:17:11.599Z,57.91113
2023-02-05T10:19:11.529Z,59.77734
2023-02-05T10:21:11.591Z,57.42578
2023-02-05T10:23:11.536Z,58.71582
2023-02-05T10:26:10.631Z,58.18359
2023-02-05T10:28:10.602Z,58.80371
2023-02-05T10:30:10.521Z,57.85547
2023-02-05T10:32:10.470Z,57.10352
2023-02-05T10:34:10.475Z,57.79688
2023-02-05T10:36:10.477Z,57.80078
2023-02-05T10:38:10.510Z,58.68066
2023-02-05T10:41:27.712Z,58.12109
2023-02-05T10:43:27.738Z,59.10449
2023-02-05T10:45:27.712Z,58.57715
2023-02-05T10:47:27.720Z,58.14063
2023-02-05T10:49:27.728Z,58.44043
2023-02-05T10:51:27.707Z,59.22266
2023-02-05T10:53:27.663Z,59.25488
2023-02-05T10:56:31.485Z,59.64551
2023-02-05T10:58:31.448Z,59.0957
2023-02-05T11:00:31.727Z,58.28613
2023-02-05T11:02:31.499Z,58.68359
2023-02-05T11:04:31.455Z,59.44238
2023-02-05T11:06:31.466Z,58.10938
2023-02-05T11:08:31.426Z,58.12793
2023-02-05T11:11:06.863Z,58.60742
2023-02-05T11:13:06.877Z,58.30859
2023-02-05T11:15:06.991Z,58.30371
2023-02-05T11:17:06.847Z,58.15039
2023-02-05T11:19:06.938Z,58.56641
2023-02-05T11:21:06.860Z,58.60254
2023-02-05T11:23:07.080Z,57.00195
2023-02-05T11:26:16.803Z,56.58301
2023-02-05T11:28:16.928Z,57.32422
2023-02-05T11:30:17.907Z,57.32422
2023-02-05T11:32:16.811Z,57.36621
2023-02-05T11:34:16.674Z,57.08496
2023-02-05T11:36:16.764Z,57.21191
2023-02-05T11:38:16.653Z,55.33203
2023-02-05T11:41:46.683Z,57.04395
2023-02-05T11:43:46.724Z,56.52148
2023-02-05T11:45:46.616Z,58.31738
2023-02-05T11:47:46.598Z,56.71387
2023-02-05T11:49:46.620Z,57.22266
2023-02-05T11:51:46.900Z,58.05957
2023-02-05T11:53:46.605Z,60.11914
2023-02-05T11:57:12.500Z,60.2793
2023-02-05T11:59:12.435Z,61.76953
2023-02-05T12:01:12.465Z,61.5332
2023-02-05T12:03:12.576Z,61.13086
2023-02-05T12:05:12.533Z,62.16992
2023-02-05T12:07:12.774Z,62.7627
2023-02-05T12:09:12.512Z,64.50195
2023-02-05T12:11:58.142Z,64.45117
2023-02-05T12:13:58.126Z,63.58789
2023-02-05T12:15:58.108Z,64.92285
2023-02-05T12:17:58.080Z,65.70605
2023-02-05T12:19:58.129Z,64.49609
2023-02-05T12:21:58.071Z,64.45801
2023-02-05T12:23:58.239Z,62.16895
2023-02-05T12:27:08.927Z,61.30371
2023-02-05T12:29:08.901Z,61.37598
2023-02-05T12:31:08.920Z,61.48438
2023-02-05T12:33:08.998Z,62.21094
2023-02-05T12:35:08.910Z,62.04102
2023-02-05T12:37:09.386Z,61.3125
2023-02-05T12:39:08.949Z,59.3418
2023-02-05T12:42:23.824Z,61.31445
2023-02-05T12:44:23.733Z,60.5498
2023-02-05T12:46:23.713Z,59.26172
2023-02-05T12:48:23.773Z,58.86719
2023-02-05T12:50:23.740Z,57.47461
2023-02-05T12:52:23.765Z,57.1875
2023-02-05T12:54:23.770Z,57.79102
2023-02-05T12:57:25.592Z,57.15332
2023-02-05T12:59:25.669Z,57.00879
2023-02-05T13:01:25.705Z,58.05469
2023-02-05T13:03:25.652Z,57.66602
2023-02-05T13:05:25.607Z,59.03809
2023-02-05T13:07:25.596Z,58.20508
2023-02-05T13:09:25.678Z,57.85742
2023-02-05T13:13:05.371Z,59.62012
2023-02-05T13:15:05.328Z,59.18164
2023-02-05T13:17:05.355Z,58.70508
2023-02-05T13:19:05.275Z,59.39844
2023-02-05T13:21:05.269Z,58.98926
2023-02-05T13:23:05.326Z,59.00098
2023-02-05T13:25:05.315Z,59.24219
2023-02-05T13:28:00.094Z,59.51074
2023-02-05T13:30:00.043Z,59.58496
2023-02-05T13:32:15.158Z,60.69336
2023-02-05T13:34:00.069Z,60.4541
2023-02-05T13:36:00.000Z,60.34473
2023-02-05T13:37:59.978Z,61.12891
2023-02-05T13:40:00.062Z,61.54883
2023-02-05T13:42:47.431Z,62.2041
2023-02-05T13:44:47.316Z,62.01855
2023-02-05T13:46:47.879Z,61.75684
2023-02-05T13:48:47.436Z,62.1416
2023-02-05T13:50:47.438Z,62.62402
2023-02-05T13:52:47.477Z,63.43359
2023-02-05T13:54:47.334Z,63.44141
2023-02-05T13:58:35.767Z,63.87695
2023-02-05T14:00:35.762Z,63.97559
2023-02-05T14:02:35.843Z,63.34473
2023-02-05T14:04:35.916Z,62.88672
2023-02-05T14:06:36.125Z,62.22949
2023-02-05T14:08:36.000Z,62.33594
2023-02-05T14:10:36.080Z,63.99512
2023-02-05T14:13:25.062Z,64.57227
2023-02-05T14:15:24.889Z,64.69434
2023-02-05T14:17:24.942Z,63.82813
2023-02-05T14:19:24.885Z,62.5166
2023-02-05T14:21:24.794Z,61.50098
2023-02-05T14:23:24.805Z,62.71875
2023-02-05T14:25:24.945Z,62.60938
2023-02-05T14:28:30.136Z,62.80078
2023-02-05T14:30:30.176Z,62.6123
2023-02-05T14:32:29.897Z,61.40723
2023-02-05T14:34:30.061Z,62.46289
2023-02-05T14:36:30.266Z,62.7959
2023-02-05T14:38:29.976Z,61.77539
2023-02-05T14:40:29.957Z,62.05762
2023-02-05T14:43:53.083Z,63.61328
2023-02-05T14:45:53.457Z,63.20898
2023-02-05T14:47:53.436Z,63.11816
2023-02-05T14:49:53.406Z,63.68555
2023-02-05T14:51:53.060Z,62.54004
2023-02-05T14:53:53.438Z,62.4209
2023-02-05T14:55:53.234Z,62.25977
2023-02-05T14:58:24.302Z,62.55176
2023-02-05T15:00:24.313Z,62.62695
2023-02-05T15:02:24.481Z,62.99219
2023-02-05T15:04:24.365Z,64.33789
2023-02-05T15:06:24.382Z,64.00684
2023-02-05T15:08:24.260Z,64.74707
2023-02-05T15:10:24.633Z,64.62012
2023-02-05T15:12:24.382Z,64.8916
2023-02-05T15:14:04.793Z,64.87988
2023-02-05T15:16:05.253Z,64.74316
2023-02-05T15:18:04.861Z,64.15137
2023-02-05T15:20:05.356Z,64.2334
2023-02-05T15:22:04.853Z,64.25
2023-02-05T15:24:05.215Z,64.47949
2023-02-05T15:26:05.057Z,64.22266
2023-02-05T15:29:10.678Z,63.83008
2023-02-05T15:31:10.639Z,63.50879
2023-02-05T15:33:10.618Z,63.76855
2023-02-05T15:35:10.630Z,63.04004
2023-02-05T15:37:10.641Z,62.83301
2023-02-05T15:39:11.231Z,62.67969
2023-02-05T15:41:10.513Z,63.22559
2023-02-05T15:43:58.064Z,63.25879
2023-02-05T15:45:58.100Z,63.4707
2023-02-05T15:47:58.116Z,64.48828
2023-02-05T15:49:58.135Z,64.625
2023-02-05T15:51:58.057Z,64.34766
2023-02-05T15:54:04.113Z,64.64355
2023-02-05T15:55:58.105Z,64.67871
2023-02-05T15:57:57.895Z,65.62891
2023-02-05T15:59:45.832Z,64.75781
2023-02-05T16:01:45.987Z,65.09961
2023-02-05T16:03:45.881Z,64.53516
2023-02-05T16:05:45.480Z,65.85352
2023-02-05T16:07:45.513Z,65.66406
2023-02-05T16:09:45.634Z,64.87695
2023-02-05T16:11:45.610Z,64.67578
2023-02-05T16:15:00.911Z,64.21875
2023-02-05T16:17:00.870Z,64.37207
2023-02-05T16:19:00.844Z,64.04102
2023-02-05T16:21:00.994Z,63.82617
2023-02-05T16:23:00.902Z,63.52637
2023-02-05T16:25:00.885Z,63.12598
2023-02-05T16:27:01.027Z,63.79004
2023-02-05T16:30:17.814Z,62.92578
2023-02-05T16:32:17.738Z,63.39844
2023-02-05T16:34:17.681Z,62.58203
2023-02-05T16:36:17.584Z,63.06738
2023-02-05T16:38:17.500Z,63.35352
2023-02-05T16:40:17.432Z,62.81055
2023-02-05T16:42:17.823Z,63.13086
2023-02-05T16:45:02.275Z,62.94336
2023-02-05T16:47:01.680Z,62.82031
2023-02-05T16:49:01.761Z,62.8584
2023-02-05T16:51:01.682Z,62.85938
2023-02-05T16:53:01.595Z,62.54785
2023-02-05T16:55:01.786Z,62.17871
2023-02-05T16:57:01.669Z,62.16992
2023-02-05T17:00:08.172Z,62.41309
2023-02-05T17:02:08.202Z,62.28125
2023-02-05T17:04:08.465Z,62.69629
2023-02-05T17:06:08.579Z,62.8291
2023-02-05T17:08:08.445Z,62.53711
2023-02-05T17:10:08.363Z,61.65332
2023-02-05T17:12:08.092Z,62.24414
2023-02-05T17:15:39.081Z,62.37598
2023-02-05T17:17:39.170Z,62.01953
2023-02-05T17:19:39.247Z,62.43262
2023-02-05T17:21:39.095Z,61.92969
2023-02-05T17:23:39.115Z,62.25195
2023-02-05T17:25:39.122Z,62.56348
2023-02-05T17:27:39.078Z,62.96094
2023-02-05T17:30:38.478Z,63.34473
2023-02-05T17:32:37.678Z,64.68262
2023-02-05T17:34:37.709Z,65.00781
2023-02-05T17:36:37.689Z,66.08398
2023-02-05T17:38:37.642Z,64.8291
2023-02-05T17:40:37.791Z,65.16406
2023-02-05T17:42:37.765Z,65.15332
2023-02-05T17:45:20.069Z,64.9375
2023-02-05T17:47:19.949Z,64.96582
2023-02-05T17:49:19.780Z,64.62793
2023-02-05T17:51:19.978Z,64.74512
2023-02-05T17:53:20.098Z,64.67188
2023-02-05T17:55:19.887Z,64.06641
2023-02-05T17:57:19.882Z,63.71582
2023-02-05T17:59:19.921Z,63.36914
2023-02-05T18:00:41.735Z,64.66602
2023-02-05T18:02:41.745Z,64.78809
2023-02-05T18:04:41.799Z,64.98535
2023-02-05T18:06:41.685Z,65.74121
2023-02-05T18:08:41.799Z,65.55176
2023-02-05T18:10:41.679Z,65.86328
2023-02-05T18:12:41.695Z,64.83984
2023-02-05T18:16:24.393Z,64.97168
2023-02-05T18:18:23.864Z,64.32129
2023-02-05T18:20:23.965Z,66.05566
2023-02-05T18:22:23.953Z,65.16309
2023-02-05T18:24:23.843Z,64.65918
2023-02-05T18:26:23.937Z,64.30469
2023-02-05T18:28:23.932Z,63.91309
2023-02-05T18:31:02.695Z,64.90723
2023-02-05T18:33:02.467Z,64.32031
2023-02-05T18:35:02.419Z,64.59375
2023-02-05T18:37:02.526Z,65.37793
2023-02-05T18:39:02.401Z,65.1543
2023-02-05T18:41:02.508Z,65.73828
2023-02-05T18:43:02.399Z,65.93945
2023-02-05T18:46:14.590Z,65.55078
2023-02-05T18:48:14.432Z,64.96777
2023-02-05T18:50:14.532Z,64.23633
2023-02-05T18:52:14.399Z,65.03027
2023-02-05T18:54:14.422Z,65.26953
2023-02-05T18:56:14.392Z,64.93164
2023-02-05T18:58:14.448Z,65.94531
2023-02-05T19:01:19.598Z,65.9707
2023-02-05T19:03:19.446Z,65.75391
2023-02-05T19:05:19.307Z,65.40234
2023-02-05T19:07:19.344Z,65.25098
2023-02-05T19:09:19.355Z,64.72949
2023-02-05T19:11:19.319Z,65.05957
2023-02-05T19:13:19.351Z,64.74512
2023-02-05T19:16:31.359Z,63.77441
2023-02-05T19:18:31.373Z,64.30859
2023-02-05T19:20:31.281Z,64.39453
2023-02-05T19:22:31.319Z,64.10449
2023-02-05T19:24:31.340Z,64.36426
2023-02-05T19:26:31.361Z,65.00586
2023-02-05T19:28:32.876Z,65.87598
2023-02-05T19:31:51.935Z,65.0459
2023-02-05T19:33:51.941Z,64.82813
2023-02-05T19:35:51.730Z,64.58691
2023-02-05T19:37:51.880Z,64.51367
2023-02-05T19:39:51.730Z,64.79004
2023-02-05T19:41:51.758Z,64.54004
2023-02-05T19:43:51.771Z,64.30078
2023-02-05T19:47:11.886Z,64.85645
2023-02-05T19:49:12.103Z,65.54199
2023-02-05T19:51:11.892Z,65.89941
2023-02-05T19:53:11.900Z,65.28613
2023-02-05T19:55:12.096Z,65.02246
2023-02-05T19:57:11.863Z,64.70605
2023-02-05T19:59:12.023Z,64.41309
2023-02-05T20:02:39.093Z,64.72852
2023-02-05T20:04:39.156Z,64.2832
2023-02-05T20:06:39.109Z,64.85938
2023-02-05T20:08:39.157Z,64.2168
2023-02-05T20:10:39.135Z,64.05078
2023-02-05T20:12:39.025Z,63.96777
2023-02-05T20:14:39.039Z,64.69531
2023-02-05T20:17:18.790Z,64.19922
2023-02-05T20:19:18.815Z,64.13379
2023-02-05T20:21:18.861Z,65.37305
2023-02-05T20:23:18.698Z,65.36914
2023-02-05T20:25:18.760Z,65.21094
2023-02-05T20:27:18.770Z,65.31934
2023-02-05T20:29:18.716Z,65.50195
2023-02-05T20:32:23.509Z,65.49902
2023-02-05T20:34:23.515Z,64.83301
2023-02-05T20:36:24.136Z,65.00098
2023-02-05T20:38:23.472Z,65.30078
2023-02-05T20:40:23.630Z,65.43457
2023-02-05T20:42:23.518Z,64.80859
2023-02-05T20:44:23.472Z,64.89063
2023-02-05T20:47:14.398Z,64.88477
2023-02-05T20:49:14.403Z,65.12012
2023-02-05T20:51:14.422Z,64.51563
2023-02-05T20:53:14.407Z,64.36719
2023-02-05T20:55:14.371Z,64.48242
2023-02-05T20:57:14.406Z,64.25
2023-02-05T20:59:14.534Z,63.9834
2023-02-05T21:01:14.512Z,64.09668
2023-02-05T21:02:41.775Z,64.8457
2023-02-05T21:04:41.958Z,64.96777
2023-02-05T21:06:41.886Z,64.43848
2023-02-05T21:08:41.786Z,65.06934
2023-02-05T21:10:41.844Z,64.51465
2023-02-05T21:12:41.846Z,64.0752
2023-02-05T21:14:41.838Z,65.16504
2023-02-05T21:18:09.440Z,65.39453
2023-02-05T21:20:09.460Z,66.10938
2023-02-05T21:22:09.512Z,65.22754
2023-02-05T21:24:09.516Z,65.07813
2023-02-05T21:26:09.562Z,64.77539
2023-02-05T21:28:17.573Z,65.62988
2023-02-05T21:30:09.451Z,65.61328
2023-02-05T21:32:47.613Z,65.31348
2023-02-05T21:34:47.538Z,65.6123
2023-02-05T21:36:47.531Z,65.17188
2023-02-05T21:38:47.729Z,64.72168
2023-02-05T21:40:47.548Z,65.39453
2023-02-05T21:42:47.556Z,65.19238
2023-02-05T21:44:47.706Z,64.64355
2023-02-05T21:47:51.427Z,64.26855
2023-02-05T21:49:51.460Z,64.59375
2023-02-05T21:51:51.356Z,64.1582
2023-02-05T21:53:51.395Z,64.33496
2023-02-05T21:55:51.337Z,64.2793
2023-02-05T21:57:51.387Z,63.27441
2023-02-05T21:59:51.310Z,63.41406
2023-02-05T22:01:51.416Z,64.57813
2023-02-05T22:03:20.157Z,63.59961
2023-02-05T22:05:20.082Z,63.80273
2023-02-05T22:07:20.089Z,63.59375
2023-02-05T22:09:20.124Z,63.88086
2023-02-05T22:11:20.052Z,63.9668
2023-02-05T22:13:20.066Z,64.10156
2023-02-05T22:15:20.108Z,63.76074
2023-02-05T22:18:13.445Z,63.41113
2023-02-05T22:20:13.472Z,64.30078
2023-02-05T22:22:13.410Z,64.09668
2023-02-05T22:24:13.523Z,65.05078
2023-02-05T22:26:13.495Z,64.63086
2023-02-05T22:28:13.539Z,64.05762
2023-02-05T22:30:13.412Z,63.94238
2023-02-05T22:32:13.377Z,64.34668
2023-02-05T22:33:52.527Z,64.49121
2023-02-05T22:35:52.555Z,64.68262
2023-02-05T22:37:52.536Z,64.72168
2023-02-05T22:39:52.596Z,64.80859
2023-02-05T22:41:52.564Z,65.48828
2023-02-05T22:43:52.562Z,65.26563
2023-02-05T22:45:52.705Z,64.80273
2023-02-05T22:48:51.774Z,64.45117
2023-02-05T22:50:51.752Z,64.09766
2023-02-05T22:52:51.794Z,64.67676
2023-02-05T22:54:51.776Z,64.7832
2023-02-05T22:56:51.809Z,64.45996
2023-02-05T22:58:51.885Z,64.20801
2023-02-05T23:00:51.803Z,64.66992
2023-02-05T23:04:15.148Z,64.10156
2023-02-05T23:06:15.164Z,63.97949
2023-02-05T23:08:15.163Z,64.48145
2023-02-05T23:10:15.139Z,64.64063
2023-02-05T23:12:15.088Z,64.57813
2023-02-05T23:14:15.208Z,64.68262
2023-02-05T23:16:15.151Z,65.3252
2023-02-05T23:19:13.007Z,64.91797
2023-02-05T23:21:13.004Z,63.95605
2023-02-05T23:23:12.988Z,64.62207
2023-02-05T23:25:13.064Z,64.48633
2023-02-05T23:27:12.998Z,65.20898
2023-02-05T23:29:12.997Z,65.06738
2023-02-05T23:31:13.222Z,65.01953
2023-02-05T23:34:42.427Z,65.25195
2023-02-05T23:36:42.330Z,65.37891
2023-02-05T23:38:42.462Z,65.72852
2023-02-05T23:40:42.334Z,65.24023
2023-02-05T23:42:42.352Z,64.90625
2023-02-05T23:44:42.314Z,64.58496
2023-02-05T23:46:42.379Z,65.69336
2023-02-05T23:49:40.362Z,65.6543
2023-02-05T23:51:40.395Z,65.08594
2023-02-05T23:53:40.324Z,65.44531
2023-02-05T23:55:40.504Z,64.8623
2023-02-05T23:57:40.400Z,65.27051
2023-02-05T23:59:40.134Z,64.90625
